METAR Formatted Surface Weather Observation
Issued by NWS Charleston, WV

Home | Current Version | Previous Version | Text Only | Print | Product List | Glossary On
Versions: 1 2 3 4 5
000
SAUS41 KRLX 302000 COR
MTRCRW
METAR KCRW 301954Z 19010KT 10SM SCT055TCU SCT120 SCT250 32/18 A3008
RMK AO2 SLP174 TCU ALQDS T03170178



USA.gov is the U.S. government's official web portal to all federal, state and local government web resources and services.